createdAt,value
2018-09-15T00:01:02.142Z,97688.00
2018-09-15T00:03:31.311Z,97692.00
2018-09-15T00:06:00.503Z,97698.00
2018-09-15T00:08:29.677Z,97689.00
2018-09-15T00:10:58.875Z,97680.00
2018-09-15T00:13:28.053Z,97679.00
2018-09-15T00:15:57.240Z,97678.00
2018-09-15T00:18:26.421Z,97692.00
2018-09-15T00:20:55.653Z,97681.00
2018-09-15T00:23:24.837Z,97674.00
2018-09-15T00:25:54.025Z,97675.00
2018-09-15T00:28:23.213Z,97679.00
2018-09-15T00:30:52.430Z,97674.00
2018-09-15T00:33:21.621Z,97674.00
2018-09-15T00:35:50.813Z,97681.00
2018-09-15T00:38:22.917Z,97676.00
2018-09-15T00:40:52.104Z,97670.00
2018-09-15T00:43:21.299Z,97684.00
2018-09-15T00:45:50.507Z,97688.00
2018-09-15T00:48:19.668Z,97686.00
2018-09-15T00:50:48.860Z,97685.00
2018-09-15T00:53:18.036Z,97569.00
2018-09-15T00:55:47.253Z,97694.00
2018-09-15T00:58:16.429Z,97679.00
2018-09-15T01:00:45.636Z,97682.00
2018-09-15T01:03:14.811Z,97689.00
2018-09-15T01:05:44.002Z,97686.00
2018-09-15T01:08:13.185Z,97689.00
2018-09-15T01:10:42.396Z,97683.00
2018-09-15T01:13:11.563Z,97683.00
2018-09-15T01:15:40.781Z,97682.00
2018-09-15T01:18:10.337Z,97674.00
2018-09-15T01:20:39.520Z,97687.00
2018-09-15T01:23:08.694Z,97679.00
2018-09-15T01:25:37.919Z,97684.00
2018-09-15T01:28:07.088Z,97685.00
2018-09-15T01:30:36.284Z,97696.00
2018-09-15T01:33:05.458Z,97691.00
2018-09-15T01:35:34.652Z,97687.00
2018-09-15T01:38:03.820Z,97695.00
2018-09-15T01:40:33.012Z,97693.00
2018-09-15T01:43:02.168Z,97691.00
2018-09-15T01:45:31.364Z,97701.00
2018-09-15T01:48:06.837Z,97694.00
2018-09-15T01:50:36.049Z,97690.00
2018-09-15T01:53:05.224Z,97696.00
2018-09-15T01:55:34.436Z,97698.00
2018-09-15T01:58:03.625Z,97703.00
2018-09-15T02:00:32.823Z,97701.00
2018-09-15T02:03:01.992Z,97706.00
2018-09-15T02:05:31.185Z,97705.00
2018-09-15T02:08:00.365Z,97705.00
2018-09-15T02:10:29.572Z,97704.00
2018-09-15T02:12:58.737Z,97709.00
2018-09-15T02:15:27.932Z,97698.00
2018-09-15T02:17:57.152Z,97707.00
2018-09-15T02:20:26.341Z,97705.00
2018-09-15T02:22:55.577Z,97711.00
2018-09-15T02:25:24.735Z,97702.00
2018-09-15T02:27:53.920Z,97702.00
2018-09-15T02:30:23.099Z,97699.00
2018-09-15T02:32:52.297Z,97706.00
2018-09-15T02:35:21.488Z,97709.00
2018-09-15T02:37:50.680Z,97716.00
2018-09-15T02:40:19.879Z,97715.00
2018-09-15T02:42:49.304Z,97709.00
2018-09-15T02:45:18.484Z,97723.00
2018-09-15T02:47:47.677Z,97714.00
2018-09-15T02:50:16.850Z,97727.00
2018-09-15T02:52:46.164Z,97711.00
2018-09-15T02:55:15.338Z,97714.00
2018-09-15T02:57:44.524Z,97714.00
2018-09-15T03:00:13.732Z,97716.00
2018-09-15T03:02:42.928Z,97716.00
2018-09-15T03:05:12.095Z,97720.00
2018-09-15T03:07:41.280Z,97725.00
2018-09-15T03:10:10.477Z,97721.00
2018-09-15T03:12:39.668Z,97721.00
2018-09-15T03:15:08.868Z,97730.00
2018-09-15T03:17:38.048Z,97727.00
2018-09-15T03:20:07.235Z,97737.00
2018-09-15T03:22:36.639Z,97744.00
2018-09-15T03:25:05.815Z,97738.00
2018-09-15T03:27:35.001Z,97736.00
2018-09-15T03:30:04.188Z,97739.00
2018-09-15T03:32:33.378Z,97734.00
2018-09-15T03:35:02.567Z,97736.00
2018-09-15T03:37:31.802Z,97743.00
2018-09-15T03:40:00.986Z,97760.00
2018-09-15T03:42:30.173Z,97752.00
2018-09-15T03:44:59.344Z,97747.00
2018-09-15T03:47:28.580Z,97750.00
2018-09-15T03:49:57.748Z,97743.00
2018-09-15T03:52:26.939Z,97745.00
2018-09-15T03:54:56.117Z,97747.00
2018-09-15T03:57:25.320Z,97755.00
2018-09-15T03:59:54.561Z,97747.00
2018-09-15T04:02:23.732Z,97740.00
2018-09-15T04:04:52.933Z,97749.00
2018-09-15T04:07:22.129Z,97753.00
2018-09-15T04:09:51.316Z,97758.00
2018-09-15T04:12:20.508Z,97765.00
2018-09-15T04:14:49.677Z,97757.00
2018-09-15T04:17:18.876Z,97766.00
2018-09-15T04:19:48.041Z,97778.00
2018-09-15T04:22:17.238Z,97775.00
2018-09-15T04:24:46.420Z,97783.00
2018-09-15T04:27:15.680Z,97775.00
2018-09-15T04:29:44.852Z,97771.00
2018-09-15T04:32:14.073Z,97771.00
2018-09-15T04:34:43.244Z,97783.00
2018-09-15T04:37:12.438Z,97772.00
2018-09-15T04:39:41.600Z,97784.00
2018-09-15T04:42:10.800Z,97791.00
2018-09-15T04:44:39.978Z,97787.00
2018-09-15T04:47:09.178Z,97804.00
2018-09-15T04:49:38.348Z,97814.00
2018-09-15T04:52:07.556Z,97808.00
2018-09-15T04:54:36.736Z,97803.00
2018-09-15T04:57:06.061Z,97817.00
2018-09-15T04:59:35.251Z,97819.00
2018-09-15T05:02:04.461Z,97821.00
2018-09-15T05:04:33.644Z,97818.00
2018-09-15T05:07:02.849Z,97813.00
2018-09-15T05:09:32.035Z,97818.00
2018-09-15T05:12:01.236Z,97831.00
2018-09-15T05:14:30.404Z,97829.00
2018-09-15T05:16:59.695Z,97841.00
2018-09-15T05:19:28.901Z,97843.00
2018-09-15T05:21:58.100Z,97832.00
2018-09-15T05:24:27.303Z,97841.00
2018-09-15T05:26:56.476Z,97848.00
2018-09-15T05:29:25.671Z,97860.00
2018-09-15T05:31:54.852Z,97861.00
2018-09-15T05:34:24.037Z,97863.00
2018-09-15T05:36:53.208Z,97866.00
2018-09-15T05:39:22.396Z,97864.00
2018-09-15T05:41:51.573Z,97857.00
2018-09-15T05:44:20.780Z,97861.00
2018-09-15T05:46:49.961Z,97860.00
2018-09-15T05:49:19.675Z,97868.00
2018-09-15T05:51:48.865Z,97860.00
2018-09-15T05:54:18.058Z,97860.00
2018-09-15T05:56:47.300Z,97861.00
2018-09-15T05:59:16.521Z,97874.00
2018-09-15T06:01:45.822Z,97881.00
2018-09-15T06:04:15.045Z,97876.00
2018-09-15T06:06:44.317Z,97884.00
2018-09-15T06:09:13.484Z,97879.00
2018-09-15T06:11:43.693Z,97895.00
2018-09-15T06:14:12.888Z,97896.00
2018-09-15T06:16:42.068Z,97904.00
2018-09-15T06:19:11.289Z,97904.00
2018-09-15T06:21:40.465Z,97904.00
2018-09-15T06:24:09.668Z,97900.00
2018-09-15T06:26:38.858Z,97902.00
2018-09-15T06:29:08.073Z,97893.00
2018-09-15T06:31:37.249Z,97909.00
2018-09-15T06:34:06.730Z,97901.00
2018-09-15T06:36:35.909Z,97907.00
2018-09-15T06:39:08.309Z,97895.00
2018-09-15T06:41:37.791Z,97906.00
2018-09-15T06:44:07.092Z,97917.00
2018-09-15T06:46:37.389Z,97914.00
2018-09-15T06:49:06.587Z,97912.00
2018-09-15T06:51:35.751Z,97910.00
2018-09-15T06:54:04.944Z,97904.00
2018-09-15T06:56:34.145Z,97909.00
2018-09-15T06:59:03.341Z,97921.00
2018-09-15T07:01:32.555Z,97924.00
2018-09-15T07:04:01.752Z,97923.00
2018-09-15T07:06:30.937Z,97937.00
2018-09-15T07:09:00.128Z,97933.00
2018-09-15T07:11:29.309Z,97938.00
2018-09-15T07:13:58.500Z,97939.00
2018-09-15T07:16:27.705Z,97940.00
2018-09-15T07:18:56.917Z,97933.00
2018-09-15T07:21:26.116Z,97948.00
2018-09-15T07:23:55.307Z,97946.00
2018-09-15T07:26:24.505Z,97962.00
2018-09-15T07:28:53.728Z,97950.00
2018-09-15T07:31:22.955Z,97951.00
2018-09-15T07:33:55.102Z,97956.00
2018-09-15T07:36:24.325Z,97959.00
2018-09-15T07:38:53.520Z,97969.00
2018-09-15T07:41:22.722Z,97966.00
2018-09-15T07:43:51.940Z,97982.00
2018-09-15T07:46:21.390Z,97979.00
2018-09-15T07:48:50.591Z,97980.00
2018-09-15T07:51:19.796Z,97990.00
2018-09-15T07:53:49.021Z,97991.00
2018-09-15T07:56:18.200Z,97987.00
2018-09-15T07:58:47.425Z,97984.00
2018-09-15T08:01:16.636Z,97998.00
2018-09-15T08:03:46.733Z,97993.00
2018-09-15T08:06:16.076Z,97992.00
2018-09-15T08:08:45.284Z,97991.00
2018-09-15T08:11:14.480Z,97994.00
2018-09-15T08:13:43.684Z,97998.00
2018-09-15T08:16:14.283Z,98003.00
2018-09-15T08:18:43.528Z,98007.00
2018-09-15T08:21:12.724Z,98008.00
2018-09-15T08:23:41.924Z,98002.00
2018-09-15T08:26:11.131Z,98009.00
2018-09-15T08:28:40.333Z,98001.00
2018-09-15T08:31:09.538Z,98018.00
2018-09-15T08:33:38.772Z,98016.00
2018-09-15T08:36:08.089Z,98018.00
2018-09-15T08:38:37.304Z,98023.00
2018-09-15T08:41:06.624Z,98022.00
2018-09-15T08:43:35.764Z,98032.00
2018-09-15T08:46:04.968Z,98035.00
2018-09-15T08:48:34.192Z,98040.00
2018-09-15T08:51:03.384Z,98041.00
2018-09-15T08:53:32.581Z,98036.00
2018-09-15T08:56:01.916Z,97942.00
2018-09-15T08:58:31.106Z,98032.00
2018-09-15T09:01:00.344Z,98036.00
2018-09-15T09:03:29.544Z,98036.00
2018-09-15T09:05:58.748Z,98038.00
2018-09-15T09:08:27.940Z,98040.00
2018-09-15T09:11:03.920Z,98031.00
2018-09-15T09:13:33.136Z,98037.00
2018-09-15T09:16:02.335Z,98038.00
2018-09-15T09:18:31.537Z,98041.00
2018-09-15T09:21:00.772Z,98039.00
2018-09-15T09:26:40.635Z,98039.00
2018-09-15T09:29:09.829Z,98041.00
2018-09-15T09:31:39.050Z,98044.00
2018-09-15T09:34:08.347Z,98037.00
2018-09-15T09:36:37.514Z,98038.00
2018-09-15T09:39:10.276Z,98033.00
2018-09-15T09:41:39.455Z,98028.00
2018-09-15T09:44:08.747Z,98029.00
2018-09-15T09:46:37.937Z,98035.00
2018-09-15T09:49:07.372Z,98027.00
2018-09-15T09:51:36.575Z,98037.00
2018-09-15T09:54:05.849Z,98031.00
2018-09-15T09:56:35.016Z,98031.00
2018-09-15T09:59:04.212Z,98030.00
2018-09-15T10:01:38.590Z,98024.00
2018-09-15T10:04:07.948Z,98026.00
2018-09-15T10:06:37.108Z,98038.00
2018-09-15T10:09:09.620Z,98036.00
2018-09-15T10:11:39.970Z,98025.00
2018-09-15T10:14:09.180Z,98023.00
2018-09-15T10:16:38.440Z,98028.00
2018-09-15T10:19:08.632Z,98029.00
2018-09-15T10:21:37.936Z,98026.00
2018-09-15T10:24:07.105Z,98023.00
2018-09-15T10:26:36.313Z,98025.00
2018-09-15T10:29:05.781Z,98029.00
2018-09-15T10:31:35.200Z,98026.00
2018-09-15T10:34:05.324Z,98030.00
2018-09-15T10:36:34.697Z,98017.00
2018-09-15T10:39:04.957Z,98016.00
2018-09-15T10:41:34.176Z,98015.00
2018-09-15T10:44:03.345Z,98005.00
2018-09-15T10:46:32.589Z,98015.00
2018-09-15T10:49:01.785Z,98014.00
2018-09-15T10:51:30.988Z,98016.00
2018-09-15T10:54:00.420Z,98023.00
2018-09-15T10:56:29.601Z,98023.00
2018-09-15T10:58:58.774Z,98005.00
2018-09-15T11:01:27.980Z,98006.00
2018-09-15T11:03:57.157Z,98026.00
2018-09-15T11:06:26.341Z,98036.00
2018-09-15T11:08:55.606Z,98030.00
2018-09-15T11:11:24.794Z,98027.00
2018-09-15T11:13:53.988Z,98027.00
2018-09-15T11:16:23.192Z,98021.00
2018-09-15T11:18:52.393Z,98035.00
2018-09-15T11:21:21.584Z,98041.00
2018-09-15T11:23:50.760Z,98034.00
2018-09-15T11:26:19.934Z,98038.00
2018-09-15T11:28:49.175Z,98036.00
2018-09-15T11:31:18.339Z,98027.00
2018-09-15T11:33:47.504Z,98042.00
2018-09-15T11:36:16.707Z,98033.00
2018-09-15T11:38:48.651Z,98047.00
2018-09-15T11:41:17.928Z,98040.00
2018-09-15T11:43:47.092Z,98031.00
2018-09-15T11:46:16.264Z,98042.00
2018-09-15T11:48:45.437Z,98039.00
2018-09-15T11:51:14.633Z,98038.00
2018-09-15T11:53:43.842Z,98023.00
2018-09-15T11:56:13.035Z,98024.00
2018-09-15T11:58:42.205Z,98028.00
2018-09-15T12:01:11.430Z,98036.00
2018-09-15T12:03:40.605Z,98026.00
2018-09-15T12:06:09.832Z,98021.00
2018-09-15T12:08:45.808Z,98036.00
2018-09-15T12:11:15.132Z,98037.00
2018-09-15T12:13:44.309Z,98038.00
2018-09-15T12:16:13.510Z,98030.00
2018-09-15T12:18:42.679Z,98029.00
2018-09-15T12:21:11.928Z,98025.00
2018-09-15T12:23:41.089Z,98029.00
2018-09-15T12:26:10.300Z,98032.00
2018-09-15T12:28:40.110Z,98028.00
2018-09-15T12:31:09.314Z,98036.00
2018-09-15T12:33:38.634Z,98037.00
2018-09-15T12:36:07.796Z,98033.00
2018-09-15T12:38:37.144Z,98033.00
2018-09-15T12:41:06.342Z,98033.00
2018-09-15T12:43:35.533Z,98033.00
2018-09-15T12:46:04.716Z,98033.00
2018-09-15T12:48:33.886Z,98032.00
2018-09-15T12:51:03.136Z,98035.00
2018-09-15T12:53:32.314Z,98039.00
2018-09-15T12:56:02.975Z,98029.00
2018-09-15T12:58:32.161Z,98029.00
2018-09-15T13:01:02.121Z,98027.00
2018-09-15T13:03:31.354Z,98038.00
2018-09-15T13:06:01.237Z,98028.00
2018-09-15T13:08:33.971Z,98028.00
2018-09-15T13:11:03.181Z,98036.00
2018-09-15T13:13:32.393Z,98028.00
2018-09-15T13:16:01.621Z,98008.00
2018-09-15T13:18:30.805Z,98030.00
2018-09-15T13:21:06.716Z,98027.00
2018-09-15T13:23:35.915Z,98034.00
2018-09-15T13:26:05.117Z,98031.00
2018-09-15T13:28:34.292Z,98040.00
2018-09-15T13:31:03.472Z,98026.00
2018-09-15T13:33:32.684Z,98026.00
2018-09-15T13:36:01.902Z,98029.00
2018-09-15T13:38:31.089Z,98033.00
2018-09-15T13:41:00.287Z,98027.00
2018-09-15T13:43:29.456Z,98023.00
2018-09-15T13:45:58.644Z,98018.00
2018-09-15T13:48:27.822Z,98034.00
2018-09-15T13:50:57.029Z,98029.00
2018-09-15T13:53:26.254Z,98029.00
2018-09-15T13:55:55.517Z,98030.00
2018-09-15T13:58:24.712Z,98028.00
2018-09-15T14:00:53.906Z,98034.00
2018-09-15T14:03:23.114Z,98035.00
2018-09-15T14:05:52.298Z,98039.00
2018-09-15T14:08:21.501Z,98031.00
2018-09-15T14:10:50.718Z,98031.00
2018-09-15T14:13:20.017Z,98022.00
2018-09-15T14:15:49.196Z,98025.00
2018-09-15T14:18:18.384Z,98035.00
2018-09-15T14:20:47.676Z,98029.00
2018-09-15T14:23:17.872Z,98035.00
2018-09-15T14:25:47.085Z,98031.00
2018-09-15T14:28:16.616Z,98033.00
2018-09-15T14:30:45.812Z,98027.00
2018-09-15T14:33:15.004Z,98037.00
2018-09-15T14:35:44.167Z,98033.00
2018-09-15T14:38:13.353Z,98029.00
2018-09-15T14:40:42.520Z,98039.00
2018-09-15T14:43:11.753Z,98038.00
2018-09-15T14:45:40.942Z,98039.00
2018-09-15T14:48:10.192Z,98037.00
2018-09-15T14:50:39.327Z,98039.00
2018-09-15T14:53:08.532Z,98027.00
2018-09-15T14:55:38.517Z,98030.00
2018-09-15T14:58:07.713Z,98026.00
2018-09-15T15:02:01.684Z,98039.00
2018-09-15T15:04:30.881Z,98038.00
2018-09-15T15:07:00.085Z,98035.00
2018-09-15T15:09:29.287Z,98041.00
2018-09-15T15:11:58.489Z,98050.00
2018-09-15T15:14:27.761Z,98044.00
2018-09-15T15:16:56.963Z,98043.00
2018-09-15T15:19:26.204Z,98053.00
2018-09-15T15:21:55.434Z,98049.00
2018-09-15T15:24:24.631Z,98043.00
2018-09-15T15:26:53.902Z,98040.00
2018-09-15T15:29:23.080Z,98051.00
2018-09-15T15:31:52.301Z,98050.00
2018-09-15T15:34:21.477Z,98045.00
2018-09-15T15:36:50.652Z,98043.00
2018-09-15T15:39:19.829Z,98042.00
2018-09-15T15:41:49.035Z,98050.00
2018-09-15T15:44:18.258Z,98042.00
2018-09-15T15:46:47.428Z,98042.00
2018-09-15T15:49:16.647Z,98045.00
2018-09-15T15:51:45.838Z,98035.00
2018-09-15T15:54:15.037Z,98039.00
2018-09-15T15:56:44.201Z,98043.00
2018-09-15T15:59:13.501Z,98037.00
2018-09-15T16:01:42.635Z,98045.00
2018-09-15T16:04:11.821Z,98043.00
2018-09-15T16:06:40.984Z,98046.00
2018-09-15T16:09:10.172Z,98044.00
2018-09-15T16:11:39.386Z,98052.00
2018-09-15T16:14:08.604Z,98059.00
2018-09-15T16:16:37.782Z,98050.00
2018-09-15T16:19:06.972Z,98053.00
2018-09-15T16:21:36.230Z,98059.00
2018-09-15T16:24:05.441Z,98060.00
2018-09-15T16:26:34.849Z,98048.00
2018-09-15T16:29:04.045Z,98058.00
2018-09-15T16:31:33.246Z,98053.00
2018-09-15T16:34:02.453Z,98054.00
2018-09-15T16:36:31.637Z,98053.00
2018-09-15T16:39:00.865Z,98056.00
2018-09-15T16:41:30.037Z,98053.00
2018-09-15T16:43:59.234Z,98046.00
2018-09-15T16:46:28.404Z,98048.00
2018-09-15T16:48:57.592Z,98055.00
2018-09-15T16:51:26.764Z,98056.00
2018-09-15T16:53:55.981Z,98062.00
2018-09-15T16:56:26.126Z,98060.00
2018-09-15T16:58:55.405Z,98065.00
2018-09-15T17:01:24.633Z,98065.00
2018-09-15T17:03:53.815Z,98070.00
2018-09-15T17:06:22.977Z,98071.00
2018-09-15T17:08:52.183Z,98063.00
2018-09-15T17:11:21.381Z,98074.00
2018-09-15T17:13:50.574Z,98076.00
2018-09-15T17:16:19.974Z,98078.00
2018-09-15T17:18:49.245Z,98089.00
2018-09-15T17:21:18.473Z,98084.00
2018-09-15T17:23:47.680Z,98082.00
2018-09-15T17:26:16.925Z,98083.00
2018-09-15T17:28:46.125Z,98095.00
2018-09-15T17:31:15.429Z,98094.00
2018-09-15T17:33:44.550Z,98106.00
2018-09-15T17:36:13.715Z,98099.00
2018-09-15T17:38:42.915Z,98098.00
2018-09-15T17:41:12.103Z,98109.00
2018-09-15T17:43:41.368Z,98096.00
2018-09-15T17:46:11.003Z,98103.00
2018-09-15T17:48:41.060Z,98112.00
2018-09-15T17:51:10.224Z,98108.00
2018-09-15T17:53:39.443Z,98116.00
2018-09-15T17:56:08.626Z,98122.00
2018-09-15T17:58:37.849Z,98118.00
2018-09-15T18:01:07.040Z,98122.00
2018-09-15T18:03:36.287Z,98129.00
2018-09-15T18:06:05.453Z,98134.00
2018-09-15T18:08:34.652Z,98136.00
2018-09-15T18:11:03.821Z,98138.00
2018-09-15T18:13:33.007Z,98140.00
2018-09-15T18:16:02.185Z,98139.00
2018-09-15T18:18:31.390Z,98140.00
2018-09-15T18:21:00.552Z,98138.00
2018-09-15T18:23:29.749Z,98144.00
2018-09-15T18:25:59.174Z,98142.00
2018-09-15T18:28:28.373Z,98136.00
2018-09-15T18:30:57.548Z,98145.00
2018-09-15T18:33:26.745Z,98144.00
2018-09-15T18:35:55.955Z,98158.00
2018-09-15T18:38:25.128Z,98147.00
2018-09-15T18:40:54.289Z,98157.00
2018-09-15T18:43:23.490Z,98148.00
2018-09-15T18:45:52.800Z,98154.00
2018-09-15T18:48:21.982Z,98155.00
2018-09-15T18:50:51.239Z,98150.00
2018-09-15T18:53:20.385Z,98152.00
2018-09-15T18:55:49.593Z,98158.00
2018-09-15T18:58:18.825Z,98161.00
2018-09-15T19:00:48.032Z,98164.00
2018-09-15T19:03:17.219Z,98170.00
2018-09-15T19:05:47.156Z,98161.00
2018-09-15T19:08:16.292Z,98171.00
2018-09-15T19:10:45.489Z,98170.00
2018-09-15T19:13:14.702Z,98181.00
2018-09-15T19:15:43.920Z,98180.00
2018-09-15T19:18:13.125Z,98187.00
2018-09-15T19:20:42.343Z,98181.00
2018-09-15T19:23:11.519Z,98186.00
2018-09-15T19:25:40.730Z,98178.00
2018-09-15T19:28:09.899Z,98195.00
2018-09-15T19:30:39.114Z,98188.00
2018-09-15T19:33:08.308Z,98184.00
2018-09-15T19:35:37.517Z,98190.00
2018-09-15T19:38:06.740Z,98188.00
2018-09-15T19:40:35.944Z,98181.00
2018-09-15T19:43:05.120Z,98184.00
2018-09-15T19:45:34.386Z,98186.00
2018-09-15T19:48:03.549Z,98189.00
2018-09-15T19:50:32.756Z,98194.00
2018-09-15T19:53:01.962Z,98190.00
2018-09-15T19:55:31.159Z,98197.00
2018-09-15T19:58:00.341Z,98182.00
2018-09-15T20:00:29.549Z,98186.00
2018-09-15T20:02:58.750Z,98181.00
2018-09-15T20:05:27.969Z,98191.00
2018-09-15T20:07:57.295Z,98191.00
2018-09-15T20:10:26.613Z,98191.00
2018-09-15T20:12:55.838Z,98196.00
2018-09-15T20:15:26.857Z,98197.00
2018-09-15T20:17:54.540Z,98197.00
2018-09-15T20:20:23.101Z,98198.00
2018-09-15T20:22:54.627Z,98199.00
2018-09-15T20:25:23.864Z,98193.00
2018-09-15T20:27:53.036Z,98194.00
2018-09-15T20:30:22.233Z,98199.00
2018-09-15T20:32:51.501Z,98201.00
2018-09-15T20:35:20.642Z,98209.00
2018-09-15T20:37:49.817Z,98217.00
2018-09-15T20:40:19.072Z,98206.00
2018-09-15T20:42:48.268Z,98203.00
2018-09-15T20:45:17.449Z,98215.00
2018-09-15T20:47:46.670Z,98204.00
2018-09-15T20:50:15.875Z,98204.00
2018-09-15T20:52:45.061Z,98197.00
2018-09-15T20:55:14.247Z,98203.00
2018-09-15T20:57:43.408Z,98200.00
2018-09-15T21:00:12.617Z,98208.00
2018-09-15T21:02:42.205Z,98207.00
2018-09-15T21:05:11.820Z,98208.00
2018-09-15T21:07:41.040Z,98215.00
2018-09-15T21:10:10.228Z,98209.00
2018-09-15T21:12:39.402Z,98203.00
2018-09-15T21:15:08.616Z,98217.00
2018-09-15T21:17:37.788Z,98217.00
2018-09-15T21:20:13.486Z,98225.00
2018-09-15T21:22:42.668Z,98233.00
2018-09-15T21:25:11.901Z,98226.00
2018-09-15T21:27:41.064Z,98246.00
2018-09-15T21:30:10.248Z,98230.00
2018-09-15T21:32:39.450Z,98234.00
2018-09-15T21:35:08.668Z,98232.00
2018-09-15T21:37:37.866Z,98231.00
2018-09-15T21:40:07.058Z,98240.00
2018-09-15T21:42:36.228Z,98242.00
2018-09-15T21:45:05.437Z,98248.00
2018-09-15T21:47:34.619Z,98242.00
2018-09-15T21:50:03.835Z,98246.00
2018-09-15T21:52:33.008Z,98245.00
2018-09-15T21:55:02.212Z,98246.00
2018-09-15T21:57:31.383Z,98251.00
2018-09-15T22:00:00.598Z,98254.00
2018-09-15T22:02:32.559Z,98245.00
2018-09-15T22:05:01.770Z,98242.00
2018-09-15T22:07:30.949Z,98252.00
2018-09-15T22:10:00.129Z,98247.00
2018-09-15T22:12:29.332Z,98252.00
2018-09-15T22:14:58.512Z,98259.00
2018-09-15T22:17:28.669Z,98262.00
2018-09-15T22:19:57.912Z,98261.00
2018-09-15T22:22:27.151Z,98269.00
2018-09-15T22:24:56.300Z,98271.00
2018-09-15T22:27:31.705Z,98259.00
2018-09-15T22:30:00.893Z,98266.00
2018-09-15T22:32:30.071Z,98268.00
2018-09-15T22:34:59.277Z,98268.00
2018-09-15T22:37:28.473Z,98267.00
2018-09-15T22:39:57.640Z,98279.00
2018-09-15T22:42:26.835Z,98274.00
2018-09-15T22:44:56.002Z,98273.00
2018-09-15T22:47:25.197Z,98270.00
2018-09-15T22:49:54.363Z,98262.00
2018-09-15T22:52:23.545Z,98270.00
2018-09-15T22:54:52.729Z,98266.00
2018-09-15T22:57:21.919Z,98262.00
2018-09-15T22:59:51.132Z,98265.00
2018-09-15T23:02:20.325Z,98267.00
2018-09-15T23:04:49.501Z,98262.00
2018-09-15T23:07:18.737Z,98260.00
2018-09-15T23:09:47.948Z,98258.00
2018-09-15T23:12:17.177Z,98258.00
2018-09-15T23:14:46.361Z,98258.00
2018-09-15T23:17:15.567Z,98251.00
2018-09-15T23:19:44.940Z,98259.00
2018-09-15T23:22:14.153Z,98258.00
2018-09-15T23:24:43.329Z,98255.00
2018-09-15T23:27:12.536Z,98260.00
2018-09-15T23:29:41.720Z,98252.00
2018-09-15T23:32:10.937Z,98252.00
2018-09-15T23:34:40.125Z,98265.00
2018-09-15T23:37:09.316Z,98259.00
2018-09-15T23:39:38.484Z,98273.00
2018-09-15T23:42:07.681Z,98256.00
2018-09-15T23:44:36.889Z,98257.00
2018-09-15T23:47:06.119Z,98262.00
2018-09-15T23:49:35.318Z,98265.00
2018-09-15T23:52:04.550Z,98260.00
2018-09-15T23:54:33.726Z,98256.00
2018-09-15T23:57:02.922Z,98263.00
2018-09-15T23:59:32.137Z,98248.00
